sensor_id;sensor_type;location;lat;lon;timestamp;temperature;humidity
66726;HTU21D;53638;51.062;5.804;2022-10-15T00:02:14;15.14;118.99
66726;HTU21D;53638;51.062;5.804;2022-10-15T00:04:40;15.14;118.99
66726;HTU21D;53638;51.062;5.804;2022-10-15T00:07:06;15.16;118.99
66726;HTU21D;53638;51.062;5.804;2022-10-15T00:09:32;15.14;118.99
66726;HTU21D;53638;51.062;5.804;2022-10-15T00:11:58;15.14;118.99
66726;HTU21D;53638;51.062;5.804;2022-10-15T00:14:24;15.14;118.99
66726;HTU21D;53638;51.062;5.804;2022-10-15T00:16:49;15.14;118.99
66726;HTU21D;53638;51.062;5.804;2022-10-15T00:19:15;15.09;118.99
66726;HTU21D;53638;51.062;5.804;2022-10-15T00:21:41;15.06;118.99
66726;HTU21D;53638;51.062;5.804;2022-10-15T00:24:07;15.03;118.99
66726;HTU21D;53638;51.062;5.804;2022-10-15T00:26:33;15.04;118.99
66726;HTU21D;53638;51.062;5.804;2022-10-15T00:29:01;15.06;118.99
66726;HTU21D;53638;51.062;5.804;2022-10-15T00:31:28;15.09;118.99
66726;HTU21D;53638;51.062;5.804;2022-10-15T00:33:57;15.08;118.99
66726;HTU21D;53638;51.062;5.804;2022-10-15T00:36:27;15.08;118.99
66726;HTU21D;53638;51.062;5.804;2022-10-15T00:38:53;15.07;118.99
66726;HTU21D;53638;51.062;5.804;2022-10-15T00:41:23;15.03;118.99
66726;HTU21D;53638;51.062;5.804;2022-10-15T00:43:52;14.98;118.99
66726;HTU21D;53638;51.062;5.804;2022-10-15T00:46:24;14.93;118.99
66726;HTU21D;53638;51.062;5.804;2022-10-15T00:48:55;14.85;118.99
66726;HTU21D;53638;51.062;5.804;2022-10-15T00:51:27;14.78;118.99
66726;HTU21D;53638;51.062;5.804;2022-10-15T00:53:55;14.74;118.99
66726;HTU21D;53638;51.062;5.804;2022-10-15T00:56:24;14.70;118.99
66726;HTU21D;53638;51.062;5.804;2022-10-15T00:58:53;14.70;118.99
66726;HTU21D;53638;51.062;5.804;2022-10-15T01:01:20;14.67;118.99
66726;HTU21D;53638;51.062;5.804;2022-10-15T01:03:46;14.67;118.99
66726;HTU21D;53638;51.062;5.804;2022-10-15T01:06:12;14.68;118.99
66726;HTU21D;53638;51.062;5.804;2022-10-15T01:08:41;14.69;118.99
66726;HTU21D;53638;51.062;5.804;2022-10-15T01:17:02;14.72;118.99
66726;HTU21D;53638;51.062;5.804;2022-10-15T01:28:23;14.78;118.99
66726;HTU21D;53638;51.062;5.804;2022-10-15T01:31:01;14.82;118.99
66726;HTU21D;53638;51.062;5.804;2022-10-15T01:33:42;14.83;118.99
66726;HTU21D;53638;51.062;5.804;2022-10-15T01:36:29;14.88;118.99
66726;HTU21D;53638;51.062;5.804;2022-10-15T01:39:09;14.91;118.99
66726;HTU21D;53638;51.062;5.804;2022-10-15T01:41:53;14.92;118.99
66726;HTU21D;53638;51.062;5.804;2022-10-15T01:44:34;14.96;118.99
66726;HTU21D;53638;51.062;5.804;2022-10-15T01:47:13;14.96;118.99
66726;HTU21D;53638;51.062;5.804;2022-10-15T01:49:45;14.98;118.99
66726;HTU21D;53638;51.062;5.804;2022-10-15T01:52:18;15.02;118.99
66726;HTU21D;53638;51.062;5.804;2022-10-15T01:54:48;15.02;118.99
66726;HTU21D;53638;51.062;5.804;2022-10-15T01:57:17;15.02;118.99
66726;HTU21D;53638;51.062;5.804;2022-10-15T01:59:44;15.01;118.99
66726;HTU21D;53638;51.062;5.804;2022-10-15T02:02:11;14.96;118.99
66726;HTU21D;53638;51.062;5.804;2022-10-15T02:04:38;14.92;118.99
66726;HTU21D;53638;51.062;5.804;2022-10-15T02:07:10;14.89;118.99
66726;HTU21D;53638;51.062;5.804;2022-10-15T02:14:52;14.91;118.99
66726;HTU21D;53638;51.062;5.804;2022-10-15T02:17:30;14.93;118.99
66726;HTU21D;53638;51.062;5.804;2022-10-15T02:20:10;14.98;118.99
66726;HTU21D;53638;51.062;5.804;2022-10-15T02:22:47;14.98;118.99
66726;HTU21D;53638;51.062;5.804;2022-10-15T02:25:20;15.00;118.99
66726;HTU21D;53638;51.062;5.804;2022-10-15T02:27:51;15.03;118.99
66726;HTU21D;53638;51.062;5.804;2022-10-15T02:30:19;15.04;118.99
66726;HTU21D;53638;51.062;5.804;2022-10-15T02:32:51;15.07;118.99
66726;HTU21D;53638;51.062;5.804;2022-10-15T02:35:22;15.08;118.99
66726;HTU21D;53638;51.062;5.804;2022-10-15T02:37:52;15.08;118.99
66726;HTU21D;53638;51.062;5.804;2022-10-15T02:40:23;15.08;118.99
66726;HTU21D;53638;51.062;5.804;2022-10-15T02:42:52;15.11;118.99
66726;HTU21D;53638;51.062;5.804;2022-10-15T02:45:20;15.11;118.99
66726;HTU21D;53638;51.062;5.804;2022-10-15T02:47:46;15.13;118.99
66726;HTU21D;53638;51.062;5.804;2022-10-15T02:50:12;15.12;118.99
66726;HTU21D;53638;51.062;5.804;2022-10-15T02:52:38;15.11;118.99
66726;HTU21D;53638;51.062;5.804;2022-10-15T02:55:05;15.08;118.99
66726;HTU21D;53638;51.062;5.804;2022-10-15T02:57:32;15.08;118.99
66726;HTU21D;53638;51.062;5.804;2022-10-15T02:59:59;15.09;118.99
66726;HTU21D;53638;51.062;5.804;2022-10-15T03:02:25;15.10;118.99
66726;HTU21D;53638;51.062;5.804;2022-10-15T03:04:51;15.10;118.99
66726;HTU21D;53638;51.062;5.804;2022-10-15T03:07:17;15.08;118.99
66726;HTU21D;53638;51.062;5.804;2022-10-15T03:09:43;15.06;118.99
66726;HTU21D;53638;51.062;5.804;2022-10-15T03:12:09;15.07;118.99
66726;HTU21D;53638;51.062;5.804;2022-10-15T03:14:35;15.04;118.99
66726;HTU21D;53638;51.062;5.804;2022-10-15T03:17:02;15.01;118.99
66726;HTU21D;53638;51.062;5.804;2022-10-15T03:19:29;14.99;118.99
66726;HTU21D;53638;51.062;5.804;2022-10-15T03:21:55;14.96;118.99
66726;HTU21D;53638;51.062;5.804;2022-10-15T03:24:20;14.91;118.99
66726;HTU21D;53638;51.062;5.804;2022-10-15T03:26:47;14.88;118.99
66726;HTU21D;53638;51.062;5.804;2022-10-15T03:29:13;14.87;118.99
66726;HTU21D;53638;51.062;5.804;2022-10-15T03:31:45;14.91;118.99
66726;HTU21D;53638;51.062;5.804;2022-10-15T03:34:11;14.86;118.99
66726;HTU21D;53638;51.062;5.804;2022-10-15T03:36:37;14.82;118.99
66726;HTU21D;53638;51.062;5.804;2022-10-15T03:39:06;14.82;118.99
66726;HTU21D;53638;51.062;5.804;2022-10-15T03:41:33;14.82;118.99
66726;HTU21D;53638;51.062;5.804;2022-10-15T03:44:01;14.81;118.99
66726;HTU21D;53638;51.062;5.804;2022-10-15T03:46:27;14.82;118.99
66726;HTU21D;53638;51.062;5.804;2022-10-15T03:48:53;14.82;118.99
66726;HTU21D;53638;51.062;5.804;2022-10-15T03:51:19;14.80;118.99
66726;HTU21D;53638;51.062;5.804;2022-10-15T03:53:47;14.81;118.99
66726;HTU21D;53638;51.062;5.804;2022-10-15T03:56:13;14.83;118.99
66726;HTU21D;53638;51.062;5.804;2022-10-15T03:58:39;14.86;118.99
66726;HTU21D;53638;51.062;5.804;2022-10-15T04:01:15;14.89;118.99
66726;HTU21D;53638;51.062;5.804;2022-10-15T04:03:41;14.92;118.99
66726;HTU21D;53638;51.062;5.804;2022-10-15T04:06:07;14.93;118.99
66726;HTU21D;53638;51.062;5.804;2022-10-15T04:08:34;14.94;118.99
66726;HTU21D;53638;51.062;5.804;2022-10-15T04:11:11;14.94;118.99
66726;HTU21D;53638;51.062;5.804;2022-10-15T04:13:37;14.92;118.99
66726;HTU21D;53638;51.062;5.804;2022-10-15T04:16:04;14.83;118.99
66726;HTU21D;53638;51.062;5.804;2022-10-15T04:18:30;14.78;118.99
66726;HTU21D;53638;51.062;5.804;2022-10-15T04:20:58;14.68;118.99
66726;HTU21D;53638;51.062;5.804;2022-10-15T04:23:24;14.63;118.99
66726;HTU21D;53638;51.062;5.804;2022-10-15T04:26:26;14.57;118.99
66726;HTU21D;53638;51.062;5.804;2022-10-15T04:28:52;14.53;118.99
66726;HTU21D;53638;51.062;5.804;2022-10-15T04:31:20;14.51;118.99
66726;HTU21D;53638;51.062;5.804;2022-10-15T04:33:48;14.53;118.99
66726;HTU21D;53638;51.062;5.804;2022-10-15T04:36:14;14.51;118.99
66726;HTU21D;53638;51.062;5.804;2022-10-15T04:38:47;14.49;118.99
66726;HTU21D;53638;51.062;5.804;2022-10-15T04:41:15;14.45;118.99
66726;HTU21D;53638;51.062;5.804;2022-10-15T04:43:54;14.49;118.99
66726;HTU21D;53638;51.062;5.804;2022-10-15T04:46:20;14.50;118.99
66726;HTU21D;53638;51.062;5.804;2022-10-15T04:48:48;14.52;118.99
66726;HTU21D;53638;51.062;5.804;2022-10-15T04:51:18;14.52;118.99
66726;HTU21D;53638;51.062;5.804;2022-10-15T04:54:01;14.56;118.99
66726;HTU21D;53638;51.062;5.804;2022-10-15T04:56:28;14.58;118.99
66726;HTU21D;53638;51.062;5.804;2022-10-15T04:58:54;14.58;118.99
66726;HTU21D;53638;51.062;5.804;2022-10-15T05:01:22;14.63;118.99
66726;HTU21D;53638;51.062;5.804;2022-10-15T05:03:56;14.62;118.99
66726;HTU21D;53638;51.062;5.804;2022-10-15T05:06:22;14.65;118.99
66726;HTU21D;53638;51.062;5.804;2022-10-15T05:09:06;14.65;118.99
66726;HTU21D;53638;51.062;5.804;2022-10-15T05:30:34;14.89;118.99
66726;HTU21D;53638;51.062;5.804;2022-10-15T05:37:17;14.89;118.99
66726;HTU21D;53638;51.062;5.804;2022-10-15T05:48:23;14.88;118.99
66726;HTU21D;53638;51.062;5.804;2022-10-15T05:51:58;14.83;118.99
66726;HTU21D;53638;51.062;5.804;2022-10-15T05:55:01;14.81;118.99
66726;HTU21D;53638;51.062;5.804;2022-10-15T05:58:43;14.78;118.99
66726;HTU21D;53638;51.062;5.804;2022-10-15T06:01:50;14.74;118.99
66726;HTU21D;53638;51.062;5.804;2022-10-15T06:04:53;14.78;118.99
66726;HTU21D;53638;51.062;5.804;2022-10-15T06:15:58;14.91;118.99
66726;HTU21D;53638;51.062;5.804;2022-10-15T06:19:28;14.93;118.99
66726;HTU21D;53638;51.062;5.804;2022-10-15T06:25:24;14.99;118.99
66726;HTU21D;53638;51.062;5.804;2022-10-15T06:28:54;15.01;118.99
66726;HTU21D;53638;51.062;5.804;2022-10-15T06:31:56;15.04;118.99
66726;HTU21D;53638;51.062;5.804;2022-10-15T06:35:04;15.08;118.99
66726;HTU21D;53638;51.062;5.804;2022-10-15T06:49:55;15.21;118.99
66726;HTU21D;53638;51.062;5.804;2022-10-15T07:30:11;15.52;118.99
66726;HTU21D;53638;51.062;5.804;2022-10-15T07:33:59;15.65;118.99
66726;HTU21D;53638;51.062;5.804;2022-10-15T07:37:20;15.71;118.99
66726;HTU21D;53638;51.062;5.804;2022-10-15T07:40:13;15.71;118.99
66726;HTU21D;53638;51.062;5.804;2022-10-15T07:43:26;15.84;118.99
66726;HTU21D;53638;51.062;5.804;2022-10-15T07:46:51;15.90;118.99
66726;HTU21D;53638;51.062;5.804;2022-10-15T07:49:46;16.01;118.99
66726;HTU21D;53638;51.062;5.804;2022-10-15T07:52:40;16.10;118.99
66726;HTU21D;53638;51.062;5.804;2022-10-15T07:55:28;16.14;118.99
66726;HTU21D;53638;51.062;5.804;2022-10-15T07:58:37;16.24;118.99
66726;HTU21D;53638;51.062;5.804;2022-10-15T08:02:05;16.34;118.99
66726;HTU21D;53638;51.062;5.804;2022-10-15T08:05:05;16.30;118.99
66726;HTU21D;53638;51.062;5.804;2022-10-15T08:07:59;16.42;118.99
66726;HTU21D;53638;51.062;5.804;2022-10-15T08:11:08;16.42;118.99
66726;HTU21D;53638;51.062;5.804;2022-10-15T08:13:39;16.47;118.99
66726;HTU21D;53638;51.062;5.804;2022-10-15T08:16:36;16.56;118.99
66726;HTU21D;53638;51.062;5.804;2022-10-15T08:19:37;16.61;118.99
66726;HTU21D;53638;51.062;5.804;2022-10-15T08:22:32;16.70;118.99
66726;HTU21D;53638;51.062;5.804;2022-10-15T08:25:19;16.78;118.99
66726;HTU21D;53638;51.062;5.804;2022-10-15T08:27:52;16.86;118.99
66726;HTU21D;53638;51.062;5.804;2022-10-15T08:30:26;16.92;118.99
66726;HTU21D;53638;51.062;5.804;2022-10-15T08:32:58;16.90;118.99
66726;HTU21D;53638;51.062;5.804;2022-10-15T08:35:24;16.93;118.99
66726;HTU21D;53638;51.062;5.804;2022-10-15T08:37:55;17.00;118.99
66726;HTU21D;53638;51.062;5.804;2022-10-15T08:40:54;17.05;118.99
66726;HTU21D;53638;51.062;5.804;2022-10-15T08:46:19;17.36;118.99
66726;HTU21D;53638;51.062;5.804;2022-10-15T08:49:48;17.45;118.99
66726;HTU21D;53638;51.062;5.804;2022-10-15T08:52:08;17.47;118.99
66726;HTU21D;53638;51.062;5.804;2022-10-15T08:54:37;17.43;118.99
66726;HTU21D;53638;51.062;5.804;2022-10-15T08:57:35;17.41;118.99
66726;HTU21D;53638;51.062;5.804;2022-10-15T09:00:14;17.55;118.99
66726;HTU21D;53638;51.062;5.804;2022-10-15T09:03:38;17.70;118.99
66726;HTU21D;53638;51.062;5.804;2022-10-15T09:06:36;17.79;118.99
66726;HTU21D;53638;51.062;5.804;2022-10-15T09:12:39;17.90;118.99
66726;HTU21D;53638;51.062;5.804;2022-10-15T09:15:13;17.96;118.99
66726;HTU21D;53638;51.062;5.804;2022-10-15T09:18:08;17.65;118.99
66726;HTU21D;53638;51.062;5.804;2022-10-15T09:20:57;17.51;118.99
66726;HTU21D;53638;51.062;5.804;2022-10-15T09:23:27;17.34;118.99
66726;HTU21D;53638;51.062;5.804;2022-10-15T09:29:28;17.51;118.99
66726;HTU21D;53638;51.062;5.804;2022-10-15T09:32:38;17.68;118.99
66726;HTU21D;53638;51.062;5.804;2022-10-15T09:35:14;17.74;118.99
66726;HTU21D;53638;51.062;5.804;2022-10-15T09:47:30;18.11;118.99
66726;HTU21D;53638;51.062;5.804;2022-10-15T09:50:35;18.23;118.99
66726;HTU21D;53638;51.062;5.804;2022-10-15T09:53:16;18.20;118.99
66726;HTU21D;53638;51.062;5.804;2022-10-15T09:58:38;18.25;118.99
66726;HTU21D;53638;51.062;5.804;2022-10-15T10:01:27;18.17;118.99
66726;HTU21D;53638;51.062;5.804;2022-10-15T10:04:12;18.20;118.99
66726;HTU21D;53638;51.062;5.804;2022-10-15T10:06:45;18.33;118.99
66726;HTU21D;53638;51.062;5.804;2022-10-15T10:09:37;18.44;118.99
66726;HTU21D;53638;51.062;5.804;2022-10-15T10:12:19;18.48;118.99
66726;HTU21D;53638;51.062;5.804;2022-10-15T10:18:02;18.66;118.99
66726;HTU21D;53638;51.062;5.804;2022-10-15T10:23:48;18.87;118.99
66726;HTU21D;53638;51.062;5.804;2022-10-15T10:26:17;18.97;118.99
66726;HTU21D;53638;51.062;5.804;2022-10-15T10:29:10;19.00;118.99
66726;HTU21D;53638;51.062;5.804;2022-10-15T10:32:10;19.01;118.99
66726;HTU21D;53638;51.062;5.804;2022-10-15T10:35:02;19.02;118.99
66726;HTU21D;53638;51.062;5.804;2022-10-15T10:37:41;19.01;118.99
66726;HTU21D;53638;51.062;5.804;2022-10-15T10:40:34;18.99;118.99
66726;HTU21D;53638;51.062;5.804;2022-10-15T10:43:14;18.96;118.99
66726;HTU21D;53638;51.062;5.804;2022-10-15T10:46:03;18.93;118.99
66726;HTU21D;53638;51.062;5.804;2022-10-15T10:48:41;18.93;118.99
66726;HTU21D;53638;51.062;5.804;2022-10-15T10:51:18;18.92;118.99
66726;HTU21D;53638;51.062;5.804;2022-10-15T10:53:57;19.03;118.99
66726;HTU21D;53638;51.062;5.804;2022-10-15T10:56:39;19.11;118.99
66726;HTU21D;53638;51.062;5.804;2022-10-15T10:59:15;19.32;118.99
66726;HTU21D;53638;51.062;5.804;2022-10-15T11:02:13;19.73;118.99
66726;HTU21D;53638;51.062;5.804;2022-10-15T11:04:39;20.13;118.99
66726;HTU21D;53638;51.062;5.804;2022-10-15T11:18:06;21.43;118.99
66726;HTU21D;53638;51.062;5.804;2022-10-15T11:21:05;21.17;118.99
66726;HTU21D;53638;51.062;5.804;2022-10-15T11:23:54;20.93;118.99
66726;HTU21D;53638;51.062;5.804;2022-10-15T11:26:47;20.84;118.99
66726;HTU21D;53638;51.062;5.804;2022-10-15T11:32:52;20.70;118.99
66726;HTU21D;53638;51.062;5.804;2022-10-15T11:38:22;20.69;118.99
66726;HTU21D;53638;51.062;5.804;2022-10-15T11:50:01;20.41;118.99
66726;HTU21D;53638;51.062;5.804;2022-10-15T11:53:11;20.54;118.99
66726;HTU21D;53638;51.062;5.804;2022-10-15T11:56:01;20.87;118.99
66726;HTU21D;53638;51.062;5.804;2022-10-15T11:58:51;21.13;118.99
66726;HTU21D;53638;51.062;5.804;2022-10-15T12:01:30;21.23;118.99
66726;HTU21D;53638;51.062;5.804;2022-10-15T12:04:31;21.27;118.99
66726;HTU21D;53638;51.062;5.804;2022-10-15T12:08:36;21.16;118.99
66726;HTU21D;53638;51.062;5.804;2022-10-15T12:11:03;21.40;118.99
66726;HTU21D;53638;51.062;5.804;2022-10-15T12:13:56;22.05;118.99
66726;HTU21D;53638;51.062;5.804;2022-10-15T12:16:40;22.61;118.99
66726;HTU21D;53638;51.062;5.804;2022-10-15T12:19:53;23.28;118.99
66726;HTU21D;53638;51.062;5.804;2022-10-15T12:23:04;23.64;118.99
66726;HTU21D;53638;51.062;5.804;2022-10-15T12:26:36;23.49;118.99
66726;HTU21D;53638;51.062;5.804;2022-10-15T12:29:19;22.98;118.99
66726;HTU21D;53638;51.062;5.804;2022-10-15T12:32:21;22.54;118.99
66726;HTU21D;53638;51.062;5.804;2022-10-15T12:41:16;22.56;118.99
66726;HTU21D;53638;51.062;5.804;2022-10-15T12:44:04;22.38;118.99
66726;HTU21D;53638;51.062;5.804;2022-10-15T12:46:54;21.82;118.99
66726;HTU21D;53638;51.062;5.804;2022-10-15T12:51:56;20.14;118.99
66726;HTU21D;53638;51.062;5.804;2022-10-15T12:54:39;19.61;118.99
66726;HTU21D;53638;51.062;5.804;2022-10-15T13:00:27;19.28;118.99
66726;HTU21D;53638;51.062;5.804;2022-10-15T13:02:55;19.13;118.99
66726;HTU21D;53638;51.062;5.804;2022-10-15T13:05:31;19.09;118.99
66726;HTU21D;53638;51.062;5.804;2022-10-15T13:08:02;19.01;118.99
66726;HTU21D;53638;51.062;5.804;2022-10-15T13:10:33;18.91;118.99
66726;HTU21D;53638;51.062;5.804;2022-10-15T13:13:03;18.80;118.99
66726;HTU21D;53638;51.062;5.804;2022-10-15T13:15:31;18.57;118.99
66726;HTU21D;53638;51.062;5.804;2022-10-15T13:22:57;17.64;118.99
66726;HTU21D;53638;51.062;5.804;2022-10-15T13:26:37;17.38;118.99
66726;HTU21D;53638;51.062;5.804;2022-10-15T14:14:26;17.07;118.99
66726;HTU21D;53638;51.062;5.804;2022-10-15T14:18:17;16.98;118.99
66726;HTU21D;53638;51.062;5.804;2022-10-15T14:22:14;17.02;118.99
66726;HTU21D;53638;51.062;5.804;2022-10-15T14:25:51;17.03;118.99
66726;HTU21D;53638;51.062;5.804;2022-10-15T14:28:41;17.03;118.99
66726;HTU21D;53638;51.062;5.804;2022-10-15T14:31:08;17.03;118.99
66726;HTU21D;53638;51.062;5.804;2022-10-15T14:36:06;17.01;118.99
66726;HTU21D;53638;51.062;5.804;2022-10-15T14:38:33;17.03;118.99
66726;HTU21D;53638;51.062;5.804;2022-10-15T14:44:01;17.03;118.99
66726;HTU21D;53638;51.062;5.804;2022-10-15T14:46:37;17.03;118.99
66726;HTU21D;53638;51.062;5.804;2022-10-15T14:49:27;17.02;118.99
66726;HTU21D;53638;51.062;5.804;2022-10-15T14:52:06;17.03;118.99
66726;HTU21D;53638;51.062;5.804;2022-10-15T14:54:38;17.03;118.99
66726;HTU21D;53638;51.062;5.804;2022-10-15T14:57:17;17.04;118.99
66726;HTU21D;53638;51.062;5.804;2022-10-15T14:59:45;16.95;118.99
66726;HTU21D;53638;51.062;5.804;2022-10-15T15:02:14;17.01;118.99
66726;HTU21D;53638;51.062;5.804;2022-10-15T15:04:44;17.05;118.99
66726;HTU21D;53638;51.062;5.804;2022-10-15T15:07:14;17.09;118.99
66726;HTU21D;53638;51.062;5.804;2022-10-15T15:09:40;17.11;118.99
66726;HTU21D;53638;51.062;5.804;2022-10-15T15:12:16;17.15;118.99
66726;HTU21D;53638;51.062;5.804;2022-10-15T15:14:42;17.14;118.99
66726;HTU21D;53638;51.062;5.804;2022-10-15T15:17:15;17.14;118.99
66726;HTU21D;53638;51.062;5.804;2022-10-15T15:19:41;17.13;118.99
66726;HTU21D;53638;51.062;5.804;2022-10-15T15:22:14;17.11;118.99
66726;HTU21D;53638;51.062;5.804;2022-10-15T15:24:40;17.07;118.99
66726;HTU21D;53638;51.062;5.804;2022-10-15T15:27:21;17.08;118.99
66726;HTU21D;53638;51.062;5.804;2022-10-15T15:29:48;17.03;118.99
66726;HTU21D;53638;51.062;5.804;2022-10-15T15:32:15;17.01;118.99
66726;HTU21D;53638;51.062;5.804;2022-10-15T15:34:41;16.96;118.99
66726;HTU21D;53638;51.062;5.804;2022-10-15T15:37:16;16.91;118.99
66726;HTU21D;53638;51.062;5.804;2022-10-15T15:40:20;16.86;118.99
66726;HTU21D;53638;51.062;5.804;2022-10-15T17:33:56;15.88;118.99
66726;HTU21D;53638;51.062;5.804;2022-10-15T17:36:30;15.82;118.99
66726;HTU21D;53638;51.062;5.804;2022-10-15T17:41:00;15.78;118.99
66726;HTU21D;53638;51.062;5.804;2022-10-15T17:43:33;15.73;118.99
66726;HTU21D;53638;51.062;5.804;2022-10-15T17:46:25;15.67;118.99
66726;HTU21D;53638;51.062;5.804;2022-10-15T17:48:52;15.65;118.99
66726;HTU21D;53638;51.062;5.804;2022-10-15T17:51:23;15.60;118.99
66726;HTU21D;53638;51.062;5.804;2022-10-15T17:54:21;15.57;118.99
66726;HTU21D;53638;51.062;5.804;2022-10-15T17:56:48;15.55;118.99
66726;HTU21D;53638;51.062;5.804;2022-10-15T17:59:14;15.53;118.99
66726;HTU21D;53638;51.062;5.804;2022-10-15T18:01:42;15.51;118.99
66726;HTU21D;53638;51.062;5.804;2022-10-15T18:04:09;15.47;118.99
66726;HTU21D;53638;51.062;5.804;2022-10-15T18:06:36;15.44;118.99
66726;HTU21D;53638;51.062;5.804;2022-10-15T18:09:02;15.41;118.99
66726;HTU21D;53638;51.062;5.804;2022-10-15T18:11:31;15.37;118.99
66726;HTU21D;53638;51.062;5.804;2022-10-15T18:13:58;15.34;118.99
66726;HTU21D;53638;51.062;5.804;2022-10-15T18:16:24;15.31;118.99
66726;HTU21D;53638;51.062;5.804;2022-10-15T18:18:51;15.28;118.99
66726;HTU21D;53638;51.062;5.804;2022-10-15T18:21:20;15.25;118.99
66726;HTU21D;53638;51.062;5.804;2022-10-15T18:23:47;15.21;118.99
66726;HTU21D;53638;51.062;5.804;2022-10-15T18:26:18;15.17;118.99
66726;HTU21D;53638;51.062;5.804;2022-10-15T18:28:51;15.17;118.99
66726;HTU21D;53638;51.062;5.804;2022-10-15T18:31:19;15.13;118.99
66726;HTU21D;53638;51.062;5.804;2022-10-15T18:33:49;15.12;118.99
66726;HTU21D;53638;51.062;5.804;2022-10-15T18:36:20;15.09;118.99
66726;HTU21D;53638;51.062;5.804;2022-10-15T18:38:50;15.04;118.99
66726;HTU21D;53638;51.062;5.804;2022-10-15T18:41:18;15.01;118.99
66726;HTU21D;53638;51.062;5.804;2022-10-15T18:43:50;14.99;118.99
66726;HTU21D;53638;51.062;5.804;2022-10-15T18:46:17;14.99;118.99
66726;HTU21D;53638;51.062;5.804;2022-10-15T18:48:43;14.96;118.99
66726;HTU21D;53638;51.062;5.804;2022-10-15T18:51:12;14.96;118.99
66726;HTU21D;53638;51.062;5.804;2022-10-15T18:53:38;14.93;118.99
66726;HTU21D;53638;51.062;5.804;2022-10-15T18:56:05;14.92;118.99
66726;HTU21D;53638;51.062;5.804;2022-10-15T18:58:35;14.91;118.99
66726;HTU21D;53638;51.062;5.804;2022-10-15T19:03:41;14.87;118.99
66726;HTU21D;53638;51.062;5.804;2022-10-15T19:06:46;14.85;118.99
66726;HTU21D;53638;51.062;5.804;2022-10-15T19:09:18;14.85;118.99
66726;HTU21D;53638;51.062;5.804;2022-10-15T19:11:50;14.84;118.99
66726;HTU21D;53638;51.062;5.804;2022-10-15T19:14:18;14.83;118.99
66726;HTU21D;53638;51.062;5.804;2022-10-15T19:16:45;14.84;118.99
66726;HTU21D;53638;51.062;5.804;2022-10-15T19:19:14;14.82;118.99
66726;HTU21D;53638;51.062;5.804;2022-10-15T19:21:45;14.80;118.99
66726;HTU21D;53638;51.062;5.804;2022-10-15T19:24:13;14.79;118.99
66726;HTU21D;53638;51.062;5.804;2022-10-15T19:26:43;14.77;118.99
66726;HTU21D;53638;51.062;5.804;2022-10-15T19:29:14;14.73;118.99
66726;HTU21D;53638;51.062;5.804;2022-10-15T19:31:43;14.72;118.99
66726;HTU21D;53638;51.062;5.804;2022-10-15T19:34:10;14.69;118.99
66726;HTU21D;53638;51.062;5.804;2022-10-15T19:36:40;14.67;118.99
66726;HTU21D;53638;51.062;5.804;2022-10-15T19:39:10;14.64;118.99
66726;HTU21D;53638;51.062;5.804;2022-10-15T19:41:39;14.63;118.99
66726;HTU21D;53638;51.062;5.804;2022-10-15T19:44:08;14.60;118.99
66726;HTU21D;53638;51.062;5.804;2022-10-15T19:46:55;14.59;118.99
66726;HTU21D;53638;51.062;5.804;2022-10-15T19:49:21;14.58;118.99
66726;HTU21D;53638;51.062;5.804;2022-10-15T19:51:48;14.56;118.99
66726;HTU21D;53638;51.062;5.804;2022-10-15T19:54:15;14.55;118.99
66726;HTU21D;53638;51.062;5.804;2022-10-15T19:56:44;14.54;118.99
66726;HTU21D;53638;51.062;5.804;2022-10-15T19:59:31;14.54;118.99
66726;HTU21D;53638;51.062;5.804;2022-10-15T20:02:33;14.53;118.99
66726;HTU21D;53638;51.062;5.804;2022-10-15T20:05:20;14.49;118.99
66726;HTU21D;53638;51.062;5.804;2022-10-15T20:07:46;14.48;118.99
66726;HTU21D;53638;51.062;5.804;2022-10-15T20:10:13;14.49;118.99
66726;HTU21D;53638;51.062;5.804;2022-10-15T20:12:45;14.49;118.99
66726;HTU21D;53638;51.062;5.804;2022-10-15T20:15:11;14.48;118.99
66726;HTU21D;53638;51.062;5.804;2022-10-15T20:17:37;14.48;118.99
66726;HTU21D;53638;51.062;5.804;2022-10-15T20:20:06;14.45;118.99
66726;HTU21D;53638;51.062;5.804;2022-10-15T20:22:32;14.43;118.99
66726;HTU21D;53638;51.062;5.804;2022-10-15T20:25:03;14.42;118.99
66726;HTU21D;53638;51.062;5.804;2022-10-15T20:27:32;14.40;118.99
66726;HTU21D;53638;51.062;5.804;2022-10-15T20:30:23;14.41;118.99
66726;HTU21D;53638;51.062;5.804;2022-10-15T20:32:52;14.38;118.99
66726;HTU21D;53638;51.062;5.804;2022-10-15T20:35:18;14.36;118.99
66726;HTU21D;53638;51.062;5.804;2022-10-15T20:38:04;14.35;118.99
66726;HTU21D;53638;51.062;5.804;2022-10-15T20:40:34;14.33;118.99
66726;HTU21D;53638;51.062;5.804;2022-10-15T20:43:04;14.34;118.99
66726;HTU21D;53638;51.062;5.804;2022-10-15T20:45:51;14.33;118.99
66726;HTU21D;53638;51.062;5.804;2022-10-15T20:48:24;14.33;118.99
66726;HTU21D;53638;51.062;5.804;2022-10-15T20:50:53;14.32;118.99
66726;HTU21D;53638;51.062;5.804;2022-10-15T20:53:24;14.30;118.99
66726;HTU21D;53638;51.062;5.804;2022-10-15T20:55:53;14.30;118.99
66726;HTU21D;53638;51.062;5.804;2022-10-15T20:58:20;14.32;118.99
66726;HTU21D;53638;51.062;5.804;2022-10-15T21:00:49;14.33;118.99
66726;HTU21D;53638;51.062;5.804;2022-10-15T21:03:55;14.30;118.99
66726;HTU21D;53638;51.062;5.804;2022-10-15T21:06:42;14.30;118.99
66726;HTU21D;53638;51.062;5.804;2022-10-15T21:09:13;14.30;118.99
66726;HTU21D;53638;51.062;5.804;2022-10-15T21:12:05;14.28;118.99
66726;HTU21D;53638;51.062;5.804;2022-10-15T21:14:53;14.27;118.99
66726;HTU21D;53638;51.062;5.804;2022-10-15T21:17:39;14.27;118.99
66726;HTU21D;53638;51.062;5.804;2022-10-15T21:20:25;14.27;118.99
66726;HTU21D;53638;51.062;5.804;2022-10-15T21:22:51;14.26;118.99
66726;HTU21D;53638;51.062;5.804;2022-10-15T21:25:20;14.24;118.99
66726;HTU21D;53638;51.062;5.804;2022-10-15T21:27:49;14.24;118.99
66726;HTU21D;53638;51.062;5.804;2022-10-15T21:30:41;14.22;118.99
66726;HTU21D;53638;51.062;5.804;2022-10-15T21:33:34;14.22;118.99
66726;HTU21D;53638;51.062;5.804;2022-10-15T21:36:26;14.20;118.99
66726;HTU21D;53638;51.062;5.804;2022-10-15T21:39:15;14.19;118.99
66726;HTU21D;53638;51.062;5.804;2022-10-15T21:42:05;14.17;118.99
66726;HTU21D;53638;51.062;5.804;2022-10-15T21:44:31;14.15;118.99
66726;HTU21D;53638;51.062;5.804;2022-10-15T21:46:57;14.14;118.99
66726;HTU21D;53638;51.062;5.804;2022-10-15T21:49:24;14.12;118.99
66726;HTU21D;53638;51.062;5.804;2022-10-15T21:51:50;14.13;118.99
66726;HTU21D;53638;51.062;5.804;2022-10-15T21:54:16;14.12;118.99
66726;HTU21D;53638;51.062;5.804;2022-10-15T21:56:42;14.12;118.99
66726;HTU21D;53638;51.062;5.804;2022-10-15T21:59:11;14.10;118.99
66726;HTU21D;53638;51.062;5.804;2022-10-15T22:01:37;14.11;118.99